Time;durP1;ratioP1;P1;durP2;ratioP2;P2;SDS_P1;SDS_P2;PMS_P1;PMS_P2;Temp;Humidity;BMP_temperature;BMP_pressure;BME280_temperature;BME280_humidity;BME280_pressure;Samples;Min_cycle;Max_cycle;Signal;HPM_P1;HPM_P2
2022/05/06 00:00:37;;;;;;;7.30;5.20;;;;;;100864.50;;;;107105;1276;65563;-26
2022/05/06 00:03:07;;;;;;;6.60;5.30;;;;;;100863.92;;;;107064;1276;65742;-29
2022/05/06 00:05:34;;;;;;;8.00;5.40;;;;;;100862.05;;;;107110;1277;65448;-29
2022/05/06 00:08:01;;;;;;;7.80;5.60;;;;;;100864.34;;;;107107;1277;68663;-28
2022/05/06 00:10:29;;;;;;;8.40;5.30;;;;;;100863.84;;;;107047;1277;65700;-30
2022/05/06 00:12:56;;;;;;;6.30;5.30;;;;;;100860.38;;;;107120;1277;65581;-27
2022/05/06 00:15:23;;;;;;;6.80;5.20;;;;;;100860.89;;;;107047;1276;66272;-27
2022/05/06 00:17:50;;;;;;;8.30;5.60;;;;;;100861.05;;;;107150;1276;65563;-29
2022/05/06 00:20:17;;;;;;;6.40;5.20;;;;;;100858.79;;;;107118;1276;66410;-29
2022/05/06 00:22:44;;;;;;;6.90;5.40;;;;;;100857.44;;;;107108;1276;65718;-28
2022/05/06 00:25:12;;;;;;;7.60;5.30;;;;;;100853.77;;;;107120;1276;65709;-28
2022/05/06 00:27:43;;;;;;;6.60;5.20;;;;;;100854.73;;;;107102;1277;65754;-28
2022/05/06 00:30:10;;;;;;;6.60;5.30;;;;;;100855.10;;;;107148;1276;65613;-29
2022/05/06 00:32:37;;;;;;;7.70;5.40;;;;;;100855.77;;;;107128;1276;65990;-27
2022/05/06 00:35:05;;;;;;;7.50;5.50;;;;;;100857.38;;;;107134;1276;65568;-28
2022/05/06 00:37:33;;;;;;;6.90;5.50;;;;;;100852.58;;;;107143;1276;65688;-26
2022/05/06 00:40:00;;;;;;;7.50;5.30;;;;;;100852.38;;;;107048;1276;65663;-27
2022/05/06 00:42:27;;;;;;;7.30;5.40;;;;;;100854.05;;;;107101;1277;65695;-29
2022/05/06 00:44:54;;;;;;;7.60;5.10;;;;;;100853.65;;;;107139;1276;67118;-33
2022/05/06 00:47:22;;;;;;;6.80;5.50;;;;;;100852.73;;;;107080;1276;65587;-29
2022/05/06 00:49:50;;;;;;;6.60;5.60;;;;;;100852.63;;;;107064;1276;65607;-25
2022/05/06 00:52:17;;;;;;;7.50;5.90;;;;;;100850.89;;;;107045;1276;65895;-27
2022/05/06 00:54:45;;;;;;;8.40;5.80;;;;;;100849.25;;;;107110;1276;65646;-27
2022/05/06 00:57:12;;;;;;;7.00;5.40;;;;;;100847.60;;;;107122;1277;67013;-26
2022/05/06 01:02:26;;;;;;;6.90;5.80;;;;;;100845.76;;;;107105;1276;65864;-30
2022/05/06 01:04:54;;;;;;;6.70;5.40;;;;;;100853.06;;;;107115;1277;65601;-27
2022/05/06 01:07:22;;;;;;;6.70;5.20;;;;;;100856.44;;;;107126;1277;65482;-29
2022/05/06 01:09:49;;;;;;;7.10;5.70;;;;;;100855.24;;;;107153;1276;66714;-28
2022/05/06 01:12:17;;;;;;;6.30;5.50;;;;;;100854.13;;;;107052;1277;65533;-27
2022/05/06 01:14:45;;;;;;;7.50;5.90;;;;;;100858.54;;;;107109;1277;66802;-26
2022/05/06 01:17:13;;;;;;;7.60;5.40;;;;;;100859.20;;;;107081;1276;65765;-29
2022/05/06 01:19:40;;;;;;;7.00;5.70;;;;;;100863.61;;;;107117;1276;65601;-31
2022/05/06 01:22:07;;;;;;;8.90;5.90;;;;;;100863.83;;;;107155;1276;65591;-29
2022/05/06 01:24:34;;;;;;;6.50;5.50;;;;;;100865.96;;;;107119;1276;65699;-29
2022/05/06 01:27:07;;;;;;;7.20;5.90;;;;;;100869.08;;;;107103;1276;65698;-27
2022/05/06 01:29:36;;;;;;;7.90;6.20;;;;;;100867.29;;;;107103;1277;65678;-27
2022/05/06 01:32:04;;;;;;;6.70;5.70;;;;;;100866.89;;;;107061;1276;65595;-28
2022/05/06 01:34:32;;;;;;;6.70;5.80;;;;;;100863.58;;;;107133;1277;66937;-32
2022/05/06 01:37:04;;;;;;;8.70;6.00;;;;;;100864.00;;;;107077;1276;65589;-27
2022/05/06 01:39:35;;;;;;;7.10;6.00;;;;;;100863.31;;;;107140;1276;65671;-26
2022/05/06 01:42:06;;;;;;;7.30;6.10;;;;;;100863.45;;;;107086;1277;65526;-27
2022/05/06 01:44:44;;;;;;;6.50;5.40;;;;;;100862.44;;;;107151;1277;65587;-28
2022/05/06 01:47:21;;;;;;;7.50;6.20;;;;;;100858.35;;;;107141;1277;66853;-25
2022/05/06 01:49:50;;;;;;;7.00;6.30;;;;;;100857.85;;;;106997;1278;65606;-26
2022/05/06 01:52:18;;;;;;;7.10;6.30;;;;;;100863.55;;;;107047;1278;65784;-27
2022/05/06 01:54:46;;;;;;;6.50;5.80;;;;;;100864.77;;;;107104;1276;65582;-26
2022/05/06 01:57:14;;;;;;;7.30;6.10;;;;;;100866.15;;;;107171;1276;65839;-29
2022/05/06 01:59:42;;;;;;;6.90;5.90;;;;;;100867.20;;;;107150;1277;66950;-28
2022/05/06 02:02:09;;;;;;;7.30;6.10;;;;;;100866.27;;;;107068;1276;65688;-26
2022/05/06 02:07:22;;;;;;;7.10;6.10;;;;;;100873.97;;;;107115;1276;65710;-27
2022/05/06 02:09:49;;;;;;;8.20;6.00;;;;;;100871.65;;;;107135;1277;65549;-27
2022/05/06 02:12:16;;;;;;;7.20;6.10;;;;;;100875.51;;;;107122;1276;66921;-26
2022/05/06 02:14:43;;;;;;;7.00;6.10;;;;;;100880.30;;;;107101;1276;65712;-27
2022/05/06 02:17:11;;;;;;;7.80;5.90;;;;;;100882.02;;;;107055;1276;65701;-29
2022/05/06 02:19:38;;;;;;;7.40;5.90;;;;;;100877.44;;;;107132;1277;65645;-26
2022/05/06 02:22:05;;;;;;;7.40;5.90;;;;;;100884.36;;;;107141;1277;65560;-26
2022/05/06 02:24:32;;;;;;;7.30;6.40;;;;;;100880.94;;;;107106;1276;67347;-26
2022/05/06 02:26:59;;;;;;;7.20;6.50;;;;;;100876.40;;;;107118;1276;65669;-29
2022/05/06 02:29:27;;;;;;;6.80;6.00;;;;;;100871.42;;;;107111;1276;65595;-33
2022/05/06 02:34:39;;;;;;;7.50;6.50;;;;;;100876.63;;;;107131;1276;65588;-29
2022/05/06 02:37:06;;;;;;;7.10;5.90;;;;;;100877.35;;;;107143;1277;66049;-29
2022/05/06 02:39:34;;;;;;;8.80;7.10;;;;;;100879.30;;;;107092;1276;65691;-38
2022/05/06 02:42:01;;;;;;;7.80;7.00;;;;;;100876.07;;;;107142;1276;65588;-28
2022/05/06 02:44:28;;;;;;;7.20;6.50;;;;;;100882.87;;;;107102;1276;65690;-29
2022/05/06 02:46:55;;;;;;;8.00;6.70;;;;;;100882.69;;;;107067;1277;66850;-26
2022/05/06 02:49:22;;;;;;;7.70;6.90;;;;;;100885.79;;;;107124;1276;66531;-29
2022/05/06 02:51:49;;;;;;;7.50;6.50;;;;;;100887.27;;;;107107;1277;65512;-27
2022/05/06 02:54:21;;;;;;;8.10;7.30;;;;;;100886.65;;;;107109;1276;65714;-29
2022/05/06 02:56:49;;;;;;;8.80;7.20;;;;;;100886.51;;;;107031;1276;65588;-40
2022/05/06 02:59:16;;;;;;;7.30;6.30;;;;;;100888.83;;;;107147;1277;65692;-28
2022/05/06 03:01:44;;;;;;;7.30;6.60;;;;;;100887.02;;;;107058;1276;66957;-28
2022/05/06 03:04:13;;;;;;;7.70;6.90;;;;;;100888.40;;;;107027;1278;65620;-25
2022/05/06 03:06:42;;;;;;;7.10;6.40;;;;;;100889.84;;;;107099;1276;66623;-26
2022/05/06 03:09:09;;;;;;;7.40;6.60;;;;;;100896.20;;;;107112;1277;66394;-29
2022/05/06 03:11:37;;;;;;;7.60;6.80;;;;;;100896.13;;;;107178;1276;65707;-30
2022/05/06 03:14:05;;;;;;;7.80;6.80;;;;;;100894.77;;;;107134;1276;66836;-27
2022/05/06 03:16:32;;;;;;;7.50;6.70;;;;;;100894.67;;;;107160;1277;65662;-27
2022/05/06 03:19:00;;;;;;;8.10;7.30;;;;;;100894.24;;;;107083;1277;65662;-29
2022/05/06 03:21:27;;;;;;;7.40;6.70;;;;;;100896.33;;;;107112;1276;65596;-30
2022/05/06 03:23:55;;;;;;;7.40;6.70;;;;;;100893.09;;;;107071;1276;66263;-28
2022/05/06 03:26:22;;;;;;;7.60;6.80;;;;;;100899.41;;;;107145;1277;67000;-28
2022/05/06 03:28:52;;;;;;;8.10;7.20;;;;;;100897.40;;;;107107;1277;65687;-27
2022/05/06 03:31:19;;;;;;;7.80;6.70;;;;;;100900.70;;;;107002;1278;65617;-27
2022/05/06 03:33:47;;;;;;;8.40;7.60;;;;;;100909.58;;;;107118;1277;65780;-26
2022/05/06 03:36:15;;;;;;;7.70;6.90;;;;;;100911.97;;;;107178;1277;65582;-34
2022/05/06 03:38:42;;;;;;;8.60;7.30;;;;;;100914.30;;;;107090;1277;66003;-29
2022/05/06 03:41:09;;;;;;;7.80;7.00;;;;;;100917.48;;;;107102;1277;65583;-29
2022/05/06 03:43:36;;;;;;;8.30;7.40;;;;;;100918.48;;;;107129;1276;66673;-26
2022/05/06 03:46:04;;;;;;;7.80;6.90;;;;;;100921.95;;;;107076;1277;65562;-27
2022/05/06 03:48:31;;;;;;;8.20;7.20;;;;;;100920.21;;;;107130;1277;65838;-28
2022/05/06 03:53:45;;;;;;;7.60;6.90;;;;;;100923.10;;;;107135;1277;65683;-26
2022/05/06 03:56:12;;;;;;;7.80;6.80;;;;;;100927.40;;;;107124;1277;65557;-26
2022/05/06 03:58:40;;;;;;;8.20;7.30;;;;;;100929.88;;;;106933;1278;65552;-30
2022/05/06 04:01:10;;;;;;;7.90;7.10;;;;;;100930.89;;;;107051;1277;65674;-28
2022/05/06 04:03:40;;;;;;;8.70;7.80;;;;;;100932.95;;;;107136;1277;67756;-27
2022/05/06 04:06:08;;;;;;;8.10;7.30;;;;;;100934.20;;;;107101;1277;65590;-28
2022/05/06 04:08:35;;;;;;;8.60;7.40;;;;;;100934.14;;;;107105;1276;65652;-29
2022/05/06 04:11:02;;;;;;;8.70;7.80;;;;;;100940.48;;;;107122;1278;65599;-28
2022/05/06 04:13:29;;;;;;;7.90;7.10;;;;;;100944.18;;;;107093;1278;65704;-26
2022/05/06 04:15:56;;;;;;;8.40;7.30;;;;;;100943.33;;;;106806;1277;379309;-27
2022/05/06 04:18:24;;;;;;;8.40;7.50;;;;;;100942.13;;;;107128;1278;64302;-28
2022/05/06 04:23:37;;;;;;;8.40;7.50;;;;;;100942.90;;;;107074;1278;65730;-25
2022/05/06 04:26:08;;;;;;;8.80;7.80;;;;;;100947.18;;;;107137;1277;65701;-38
2022/05/06 04:28:36;;;;;;;8.10;7.10;;;;;;100948.89;;;;107150;1277;66957;-27
2022/05/06 04:31:05;;;;;;;7.90;7.10;;;;;;100950.98;;;;107115;1277;65618;-29
2022/05/06 04:33:34;;;;;;;8.10;7.30;;;;;;100954.52;;;;107082;1276;65700;-28
2022/05/06 04:36:03;;;;;;;9.10;7.30;;;;;;100962.75;;;;107153;1277;65702;-28
2022/05/06 04:38:31;;;;;;;8.80;7.10;;;;;;100958.02;;;;107109;1277;66387;-26
2022/05/06 04:41:00;;;;;;;8.60;7.40;;;;;;100961.34;;;;107052;1278;66730;-26
2022/05/06 04:43:29;;;;;;;8.10;7.20;;;;;;100965.42;;;;107044;1277;65626;-26
2022/05/06 04:45:56;;;;;;;7.90;7.10;;;;;;100969.97;;;;107149;1277;65698;-26
2022/05/06 04:48:25;;;;;;;9.10;7.40;;;;;;100969.21;;;;107090;1278;65694;-26
2022/05/06 04:50:52;;;;;;;9.10;8.00;;;;;;100971.57;;;;107091;1277;65591;-26
2022/05/06 04:53:19;;;;;;;8.50;7.10;;;;;;100980.08;;;;107120;1277;65930;-28
2022/05/06 04:55:51;;;;;;;9.40;7.30;;;;;;100981.34;;;;107152;1277;65567;-28
2022/05/06 04:58:19;;;;;;;8.40;7.60;;;;;;100985.62;;;;107128;1278;65567;-28
2022/05/06 05:00:47;;;;;;;8.20;7.40;;;;;;100984.77;;;;107047;1276;65679;-28
2022/05/06 05:03:15;;;;;;;8.50;7.60;;;;;;100988.46;;;;107165;1277;65784;-27
2022/05/06 05:05:43;;;;;;;8.60;7.70;;;;;;100982.50;;;;107142;1277;65736;-26
2022/05/06 05:08:10;;;;;;;9.90;8.10;;;;;;100981.55;;;;107144;1276;65663;-29
2022/05/06 05:10:37;;;;;;;8.00;7.10;;;;;;100978.66;;;;107128;1278;65692;-28
2022/05/06 05:13:05;;;;;;;8.40;7.50;;;;;;100980.52;;;;107134;1275;64405;-26
2022/05/06 05:15:33;;;;;;;8.50;7.40;;;;;;100981.30;;;;107147;1277;65588;-26
2022/05/06 05:18:00;;;;;;;8.50;7.10;;;;;;100985.96;;;;107119;1276;66936;-27
2022/05/06 05:20:28;;;;;;;8.20;7.30;;;;;;100985.86;;;;107139;1277;65803;-26
2022/05/06 05:22:55;;;;;;;9.20;7.80;;;;;;100984.69;;;;107056;1278;65686;-27
2022/05/06 05:25:22;;;;;;;9.00;7.00;;;;;;100983.98;;;;107024;1277;65767;-26
2022/05/06 05:27:49;;;;;;;8.80;7.90;;;;;;100983.70;;;;107076;1277;65613;-28
2022/05/06 05:30:17;;;;;;;8.20;7.20;;;;;;100990.88;;;;107132;1277;65771;-29
2022/05/06 05:32:44;;;;;;;8.70;7.80;;;;;;100994.48;;;;107106;1277;65684;-29
2022/05/06 05:35:11;;;;;;;10.90;8.10;;;;;;101000.00;;;;107117;1277;65705;-28
2022/05/06 05:37:39;;;;;;;7.90;7.10;;;;;;101008.96;;;;107106;1277;65676;-36
2022/05/06 05:40:07;;;;;;;7.90;7.10;;;;;;101002.49;;;;107148;1277;65662;-28
2022/05/06 05:42:34;;;;;;;7.90;6.80;;;;;;101005.52;;;;107165;1277;65145;-25
2022/05/06 05:50:36;;;;;;;8.40;7.40;;;;;;101013.66;;;;107113;1276;66237;-29
2022/05/06 05:53:05;;;;;;;8.50;7.30;;;;;;101020.14;;;;107095;1278;65685;-28
2022/05/06 05:55:32;;;;;;;8.00;7.20;;;;;;101020.73;;;;107076;1277;66961;-28
2022/05/06 05:58:00;;;;;;;8.20;7.30;;;;;;101020.51;;;;107107;1277;65560;-26
2022/05/06 06:00:28;;;;;;;7.90;7.10;;;;;;101022.97;;;;107125;1277;65601;-27
2022/05/06 06:02:56;;;;;;;8.10;7.30;;;;;;101022.30;;;;107101;1277;65600;-26
2022/05/06 06:05:24;;;;;;;8.00;7.20;;;;;;101023.23;;;;107094;1278;65821;-26
2022/05/06 06:07:51;;;;;;;8.20;7.10;;;;;;101025.53;;;;107126;1277;66837;-25
2022/05/06 06:10:18;;;;;;;7.70;6.90;;;;;;101023.85;;;;107039;1274;65705;-34
2022/05/06 06:12:46;;;;;;;7.80;6.90;;;;;;101021.83;;;;107138;1274;65654;-29
2022/05/06 06:15:15;;;;;;;8.40;7.50;;;;;;101017.16;;;;107108;1276;65692;-29
2022/05/06 06:17:42;;;;;;;8.60;7.70;;;;;;101016.90;;;;107109;1276;65577;-24
2022/05/06 06:20:11;;;;;;;8.50;7.60;;;;;;101020.39;;;;107147;1274;67132;-25
2022/05/06 06:22:38;;;;;;;9.80;8.50;;;;;;101026.80;;;;107127;1274;66180;-27
2022/05/06 06:25:07;;;;;;;10.10;8.40;;;;;;101029.73;;;;107060;1274;65661;-28
2022/05/06 06:27:34;;;;;;;9.60;8.20;;;;;;101030.48;;;;107125;1274;65687;-27
2022/05/06 06:30:04;;;;;;;11.30;9.00;;;;;;101027.69;;;;107069;1277;66325;-28
2022/05/06 06:32:31;;;;;;;9.20;8.30;;;;;;101029.52;;;;107156;1274;68667;-28
2022/05/06 06:34:59;;;;;;;9.60;8.50;;;;;;101029.73;;;;107120;1274;65705;-28
2022/05/06 06:37:32;;;;;;;11.40;8.50;;;;;;101028.06;;;;106978;1275;65785;-29
2022/05/06 06:40:02;;;;;;;10.20;7.90;;;;;;101031.40;;;;107054;1274;65700;-27
2022/05/06 06:42:30;;;;;;;9.20;8.20;;;;;;101033.98;;;;107034;1274;65705;-27
2022/05/06 06:45:00;;;;;;;9.80;8.20;;;;;;101041.27;;;;106990;1275;66636;-27
2022/05/06 06:47:29;;;;;;;11.80;9.10;;;;;;101041.80;;;;107118;1277;65522;-26
2022/05/06 06:50:00;;;;;;;9.00;7.80;;;;;;101038.69;;;;107092;1275;65644;-29
2022/05/06 06:52:27;;;;;;;9.30;7.70;;;;;;101041.90;;;;107128;1274;65749;-29
2022/05/06 06:54:57;;;;;;;8.80;7.10;;;;;;101042.52;;;;107174;1274;65667;-30
2022/05/06 06:57:30;;;;;;;9.40;7.10;;;;;;101040.80;;;;107169;1274;65595;-28
2022/05/06 06:59:57;;;;;;;8.20;7.30;;;;;;101042.92;;;;107145;1274;65611;-27
2022/05/06 07:02:25;;;;;;;8.60;7.20;;;;;;101043.74;;;;107075;1276;65615;-30
2022/05/06 07:04:52;;;;;;;10.30;7.90;;;;;;101041.00;;;;107127;1274;65560;-29
2022/05/06 07:12:52;;;;;;;8.20;7.40;;;;;;101048.72;;;;107128;1277;65605;-29
2022/05/06 07:15:19;;;;;;;9.30;7.20;;;;;;101049.59;;;;107118;1274;65707;-26
2022/05/06 07:17:47;;;;;;;8.40;7.00;;;;;;101048.31;;;;107143;1274;65615;-28
2022/05/06 07:20:14;;;;;;;7.90;7.10;;;;;;101048.36;;;;107137;1274;65496;-29
2022/05/06 07:22:42;;;;;;;7.90;7.10;;;;;;101048.57;;;;107059;1274;65638;-27
2022/05/06 07:25:09;;;;;;;9.40;7.30;;;;;;101052.38;;;;107046;1274;65597;-26
2022/05/06 07:27:36;;;;;;;8.10;6.80;;;;;;101052.71;;;;107145;1274;63489;-29
2022/05/06 07:30:06;;;;;;;9.40;7.40;;;;;;101053.73;;;;107126;1274;65813;-27
2022/05/06 07:32:34;;;;;;;7.40;6.60;;;;;;101058.11;;;;107155;1274;65593;-25
2022/05/06 07:35:01;;;;;;;8.50;7.00;;;;;;101059.15;;;;107075;1274;66919;-24
2022/05/06 07:37:33;;;;;;;7.60;6.60;;;;;;101059.28;;;;107115;1274;65593;-28
2022/05/06 07:40:03;;;;;;;7.90;6.50;;;;;;101057.91;;;;107154;1274;65576;-29
2022/05/06 07:42:33;;;;;;;9.50;7.10;;;;;;101062.69;;;;107151;1274;65673;-29
2022/05/06 07:45:00;;;;;;;10.80;8.60;;;;;;101065.84;;;;107142;1275;65713;-27
2022/05/06 07:47:29;;;;;;;12.90;8.90;;;;;;101065.05;;;;107103;1275;65893;-24
2022/05/06 07:49:56;;;;;;;10.70;8.50;;;;;;101063.98;;;;107043;1277;65736;-25
2022/05/06 07:52:24;;;;;;;11.30;9.60;;;;;;101066.67;;;;107143;1274;65583;-26
2022/05/06 07:54:51;;;;;;;12.50;9.80;;;;;;101069.10;;;;107115;1274;65587;-26
2022/05/06 07:57:18;;;;;;;10.80;9.70;;;;;;101067.93;;;;107135;1274;66032;-28
2022/05/06 07:59:46;;;;;;;10.80;8.90;;;;;;101074.36;;;;107044;1274;66701;-28
2022/05/06 08:04:59;;;;;;;10.00;8.60;;;;;;101070.92;;;;107125;1274;65790;-25
2022/05/06 08:07:26;;;;;;;10.70;7.60;;;;;;101072.24;;;;107142;1274;65666;-28
2022/05/06 08:09:53;;;;;;;8.60;7.70;;;;;;101078.23;;;;107174;1274;66016;-34
2022/05/06 08:12:20;;;;;;;11.20;8.20;;;;;;101080.46;;;;107118;1274;67485;-28
2022/05/06 08:14:47;;;;;;;9.90;7.50;;;;;;101073.89;;;;107131;1275;65656;-29
2022/05/06 08:17:15;;;;;;;8.50;7.30;;;;;;101074.59;;;;107130;1274;65674;-27
2022/05/06 08:19:42;;;;;;;9.10;7.80;;;;;;101075.05;;;;107107;1274;65590;-28
2022/05/06 08:22:11;;;;;;;9.40;8.30;;;;;;101071.92;;;;107137;1274;65524;-29
2022/05/06 08:24:38;;;;;;;9.90;8.40;;;;;;101071.58;;;;107134;1274;66852;-29
2022/05/06 08:27:06;;;;;;;10.80;7.90;;;;;;101073.34;;;;107123;1274;65561;-32
2022/05/06 08:29:35;;;;;;;10.40;8.10;;;;;;101068.72;;;;107179;1275;65589;-43
2022/05/06 08:32:03;;;;;;;9.80;7.70;;;;;;101072.63;;;;107137;1274;65702;-26
2022/05/06 08:34:30;;;;;;;9.10;7.10;;;;;;101073.10;;;;107182;1274;65584;-26
2022/05/06 08:36:58;;;;;;;9.50;7.10;;;;;;101072.10;;;;107139;1274;67367;-27
2022/05/06 08:39:25;;;;;;;8.50;7.30;;;;;;101070.83;;;;107145;1274;66573;-26
2022/05/06 08:41:54;;;;;;;8.90;7.40;;;;;;101068.44;;;;107108;1275;65560;-25
2022/05/06 08:52:44;;;;;;;7.80;6.80;;;;;;101071.50;;;;107118;1274;65679;-28
2022/05/06 08:55:12;;;;;;;8.40;7.20;;;;;;101068.65;;;;107147;1274;65726;-30
2022/05/06 08:57:40;;;;;;;7.40;6.40;;;;;;101067.46;;;;107088;1277;65616;-29
2022/05/06 09:00:09;;;;;;;8.30;7.30;;;;;;101067.00;;;;107192;1274;65620;-35
2022/05/06 09:02:40;;;;;;;8.20;7.00;;;;;;101069.43;;;;107181;1275;65619;-28
2022/05/06 09:05:23;;;;;;;8.10;6.70;;;;;;101069.95;;;;107119;1274;65588;-28
2022/05/06 09:07:59;;;;;;;7.60;6.40;;;;;;101061.41;;;;107123;1274;66845;-25
2022/05/06 09:10:27;;;;;;;7.40;6.70;;;;;;101060.59;;;;107130;1274;65710;-33
2022/05/06 09:12:59;;;;;;;8.50;6.80;;;;;;101058.21;;;;107097;1274;65684;-30
2022/05/06 09:18:22;;;;;;;8.00;6.70;;;;;;101061.42;;;;107106;1274;65559;-34
2022/05/06 09:20:50;;;;;;;9.90;7.00;;;;;;101063.38;;;;107004;1275;65591;-34
2022/05/06 09:23:26;;;;;;;7.90;6.20;;;;;;101062.48;;;;107104;1274;65557;-32
2022/05/06 09:25:55;;;;;;;9.40;6.50;;;;;;101066.84;;;;107152;1274;66329;-32
2022/05/06 09:28:27;;;;;;;7.70;6.60;;;;;;101069.42;;;;107209;1274;65698;-31
2022/05/06 09:31:03;;;;;;;7.40;6.60;;;;;;101068.02;;;;107104;1275;65567;-31
2022/05/06 09:33:41;;;;;;;8.50;7.00;;;;;;101064.09;;;;107128;1274;65672;-34
2022/05/06 09:36:31;;;;;;;7.80;6.70;;;;;;101068.29;;;;107127;1274;65558;-36
2022/05/06 09:39:08;;;;;;;8.50;7.50;;;;;;101062.89;;;;107171;1274;65614;-32
2022/05/06 09:41:40;;;;;;;8.20;7.00;;;;;;101065.14;;;;107047;1275;66802;-31
2022/05/06 09:44:10;;;;;;;7.70;6.90;;;;;;101066.15;;;;107156;1274;65671;-32
2022/05/06 09:46:38;;;;;;;9.00;6.90;;;;;;101063.21;;;;107128;1274;65794;-31
2022/05/06 09:49:06;;;;;;;8.40;7.50;;;;;;101059.16;;;;107115;1274;65588;-33
2022/05/06 09:51:34;;;;;;;8.00;7.20;;;;;;101059.07;;;;107148;1274;66681;-33
2022/05/06 09:54:05;;;;;;;8.80;7.40;;;;;;101057.13;;;;107179;1274;65666;-34
2022/05/06 09:56:32;;;;;;;8.10;7.10;;;;;;101059.15;;;;107102;1277;65749;-32
2022/05/06 09:59:00;;;;;;;7.90;7.10;;;;;;101061.92;;;;107100;1275;65628;-32
2022/05/06 10:01:27;;;;;;;7.30;6.60;;;;;;101061.27;;;;107132;1274;65679;-34
2022/05/06 10:03:54;;;;;;;8.00;6.90;;;;;;101062.75;;;;107135;1274;65663;-32
2022/05/06 10:06:25;;;;;;;7.90;6.70;;;;;;101061.22;;;;107023;1274;65809;-33
2022/05/06 10:09:00;;;;;;;7.70;6.80;;;;;;101066.84;;;;107112;1274;65674;-31
2022/05/06 10:11:29;;;;;;;7.60;6.50;;;;;;101070.02;;;;107067;1275;65695;-37
2022/05/06 10:14:03;;;;;;;7.70;6.70;;;;;;101068.47;;;;107018;1277;66810;-29
2022/05/06 10:16:35;;;;;;;7.60;6.30;;;;;;101066.48;;;;107064;1274;65666;-30
2022/05/06 10:19:03;;;;;;;7.10;6.40;;;;;;101065.08;;;;107107;1275;67950;-30
2022/05/06 10:21:49;;;;;;;8.30;6.40;;;;;;101065.85;;;;107070;1276;65756;-31
2022/05/06 10:24:18;;;;;;;7.50;6.70;;;;;;101067.36;;;;107096;1276;65600;-32
2022/05/06 10:26:50;;;;;;;7.20;6.40;;;;;;101068.41;;;;107104;1276;65747;-32
2022/05/06 10:32:28;;;;;;;7.60;6.60;;;;;;101069.94;;;;106912;1276;67294;-31
2022/05/06 10:34:58;;;;;;;8.10;6.50;;;;;;101069.58;;;;106928;1277;65605;-32
2022/05/06 10:37:40;;;;;;;6.50;5.80;;;;;;101071.83;;;;106931;1276;65705;-31
2022/05/06 10:40:22;;;;;;;7.20;6.30;;;;;;101073.20;;;;107895;1276;64453;-30
2022/05/06 10:42:50;;;;;;;7.40;6.10;;;;;;101068.27;;;;106869;1276;65701;-32
2022/05/06 10:45:32;;;;;;;7.00;6.30;;;;;;101067.08;;;;107120;1276;67472;-31
2022/05/06 10:48:00;;;;;;;7.60;6.70;;;;;;101062.79;;;;107709;1276;65900;-31
2022/05/06 10:50:38;;;;;;;7.80;6.50;;;;;;101065.33;;;;107066;1276;65992;-32
2022/05/06 10:53:05;;;;;;;8.00;6.60;;;;;;101065.08;;;;107041;1277;65844;-31
2022/05/06 10:55:32;;;;;;;8.10;7.30;;;;;;101059.63;;;;107157;1276;65603;-29
2022/05/06 10:58:04;;;;;;;9.40;6.70;;;;;;101055.99;;;;106957;1275;66061;-31
2022/05/06 11:00:37;;;;;;;8.10;6.70;;;;;;101051.48;;;;108082;1276;65692;-31
2022/05/06 11:03:05;;;;;;;7.90;6.20;;;;;;101055.69;;;;107169;1277;65693;-31
2022/05/06 11:05:32;;;;;;;7.90;6.90;;;;;;101056.66;;;;107134;1277;65785;-33
2022/05/06 11:08:01;;;;;;;8.30;6.70;;;;;;101062.75;;;;107147;1276;65585;-30
2022/05/06 11:10:31;;;;;;;7.60;6.90;;;;;;101064.67;;;;107179;1276;66060;-29
2022/05/06 11:12:59;;;;;;;8.60;7.00;;;;;;101065.81;;;;107046;1276;65722;-32
2022/05/06 11:15:32;;;;;;;8.20;7.00;;;;;;101061.17;;;;107078;1276;65742;-32
2022/05/06 11:18:04;;;;;;;7.80;7.00;;;;;;101064.46;;;;107100;1276;65749;-31
2022/05/06 11:20:36;;;;;;;8.70;6.90;;;;;;101063.13;;;;107159;1276;65688;-30
2022/05/06 11:23:08;;;;;;;9.80;6.90;;;;;;101062.75;;;;107045;1276;65871;-31
2022/05/06 11:25:37;;;;;;;7.20;6.40;;;;;;101063.83;;;;107099;1277;65727;-31
2022/05/06 11:28:32;;;;;;;7.90;6.70;;;;;;101058.54;;;;107169;1276;65598;-29
2022/05/06 11:31:00;;;;;;;7.70;6.50;;;;;;101056.38;;;;107110;1276;65676;-31
2022/05/06 11:33:31;;;;;;;7.80;6.80;;;;;;101055.86;;;;107175;1276;65686;-31
2022/05/06 11:36:06;;;;;;;7.70;6.40;;;;;;101063.52;;;;107142;1276;67185;-29
2022/05/06 11:38:46;;;;;;;7.70;6.60;;;;;;101058.37;;;;107034;1276;65570;-27
2022/05/06 11:41:17;;;;;;;7.50;6.70;;;;;;101055.08;;;;107115;1276;65589;-32
2022/05/06 11:43:47;;;;;;;8.50;6.60;;;;;;101049.75;;;;107053;1276;65798;-34
2022/05/06 11:49:08;;;;;;;7.40;6.70;;;;;;101049.15;;;;107129;1276;68183;-30
2022/05/06 11:51:39;;;;;;;6.70;6.00;;;;;;101049.65;;;;107131;1276;66241;-29
2022/05/06 11:54:07;;;;;;;6.80;6.10;;;;;;101045.13;;;;107051;1276;65590;-30
2022/05/06 11:56:36;;;;;;;7.00;6.20;;;;;;101047.41;;;;107087;1277;65398;-30
2022/05/06 11:59:04;;;;;;;7.10;5.90;;;;;;101045.98;;;;107082;1276;65577;-30
2022/05/06 12:01:34;;;;;;;6.60;5.80;;;;;;101041.61;;;;107129;1277;65703;-33
2022/05/06 12:04:09;;;;;;;7.20;5.50;;;;;;101039.08;;;;107085;1276;65824;-31
2022/05/06 12:06:47;;;;;;;6.90;6.20;;;;;;101039.13;;;;107142;1277;65580;-31
2022/05/06 12:09:17;;;;;;;7.00;5.30;;;;;;101037.73;;;;107128;1276;65590;-33
2022/05/06 12:11:46;;;;;;;6.00;5.00;;;;;;101039.43;;;;107173;1276;65602;-31
2022/05/06 12:14:18;;;;;;;7.80;5.90;;;;;;101039.69;;;;107038;1276;67472;-31
2022/05/06 12:16:59;;;;;;;7.80;5.20;;;;;;101036.96;;;;106935;1276;284350;-30
2022/05/06 12:19:37;;;;;;;6.10;5.20;;;;;;101033.91;;;;107118;1276;66063;-42
2022/05/06 12:22:05;;;;;;;8.40;5.40;;;;;;101028.90;;;;107116;1276;65725;-31
2022/05/06 12:24:50;;;;;;;6.20;5.00;;;;;;101028.57;;;;107174;1276;65633;-33
2022/05/06 12:27:25;;;;;;;6.30;5.20;;;;;;101024.48;;;;107164;1276;68031;-36
2022/05/06 12:29:53;;;;;;;7.50;4.90;;;;;;101016.02;;;;107142;1277;65729;-31
2022/05/06 12:32:22;;;;;;;6.30;4.60;;;;;;101020.86;;;;107165;1276;65643;-32
2022/05/06 12:35:10;;;;;;;6.20;4.90;;;;;;101019.13;;;;107050;1276;65565;-30
2022/05/06 12:37:53;;;;;;;6.70;5.10;;;;;;101018.11;;;;107052;1276;65497;-30
2022/05/06 12:40:31;;;;;;;6.40;4.30;;;;;;101016.79;;;;107069;1276;68621;-30
2022/05/06 12:43:10;;;;;;;5.50;4.30;;;;;;101011.98;;;;107024;1276;65791;-32
2022/05/06 12:45:50;;;;;;;6.40;4.60;;;;;;101019.05;;;;107147;1276;65691;-32
2022/05/06 12:51:06;;;;;;;6.20;4.50;;;;;;101025.83;;;;107039;1276;65605;-31
2022/05/06 12:53:34;;;;;;;6.10;4.00;;;;;;101023.52;;;;107140;1276;69250;-31
2022/05/06 12:56:04;;;;;;;6.10;4.30;;;;;;101018.45;;;;107124;1276;66147;-33
2022/05/06 12:58:32;;;;;;;5.60;4.00;;;;;;101025.47;;;;107131;1276;65582;-32
2022/05/06 13:01:00;;;;;;;5.50;4.10;;;;;;101023.11;;;;107024;1276;65579;-32
2022/05/06 13:03:29;;;;;;;6.10;3.90;;;;;;101021.30;;;;107161;1276;65626;-33
2022/05/06 13:05:56;;;;;;;5.90;4.30;;;;;;101029.48;;;;107185;1276;67184;-32
2022/05/06 13:08:24;;;;;;;6.00;4.10;;;;;;101029.94;;;;107130;1276;65580;-31
2022/05/06 13:10:52;;;;;;;6.10;4.20;;;;;;101023.23;;;;107145;1276;65682;-34
2022/05/06 13:13:20;;;;;;;5.50;4.10;;;;;;101022.86;;;;107025;1276;65717;-35
2022/05/06 13:15:47;;;;;;;5.00;3.80;;;;;;101027.58;;;;107106;1276;65688;-35
2022/05/06 13:18:15;;;;;;;5.40;4.10;;;;;;101025.05;;;;107124;1276;66794;-30
2022/05/06 13:20:44;;;;;;;5.10;4.40;;;;;;101024.44;;;;107103;1276;65704;-31
2022/05/06 13:23:11;;;;;;;4.70;3.60;;;;;;101027.59;;;;107102;1276;65601;-31
2022/05/06 13:25:38;;;;;;;5.10;4.10;;;;;;101026.79;;;;107005;1276;65679;-31
2022/05/06 13:28:05;;;;;;;6.40;4.60;;;;;;101020.13;;;;107147;1276;63404;-30
2022/05/06 13:30:33;;;;;;;5.70;4.30;;;;;;101024.36;;;;107135;1276;66466;-35
2022/05/06 13:33:00;;;;;;;5.70;4.60;;;;;;101024.73;;;;107139;1276;65673;-35
2022/05/06 13:35:28;;;;;;;5.60;4.50;;;;;;101021.09;;;;107046;1276;65723;-31
2022/05/06 13:37:55;;;;;;;6.30;4.40;;;;;;101025.02;;;;107114;1277;66101;-35
2022/05/06 13:40:25;;;;;;;6.60;4.40;;;;;;101025.66;;;;107074;1276;65666;-37
2022/05/06 13:42:52;;;;;;;5.20;3.90;;;;;;101019.77;;;;107073;1276;68679;-35